Time;durP1;ratioP1;P1;durP2;ratioP2;P2;SDS_P1;SDS_P2;PMS_P1;PMS_P2;Temp;Humidity;BMP_temperature;BMP_pressure;BME280_temperature;BME280_humidity;BME280_pressure;Samples;Min_cycle;Max_cycle;Signal;HPM_P1;HPM_P2
2021/03/22 00:00:26;;;;;;;;;;;17.90;55.80;;;;;;4903737;29;20473;-82
2021/03/22 00:02:53;;;;;;;;;;;17.90;55.80;;;;;;4907195;29;20030;-82
2021/03/22 00:05:21;;;;;;;;;;;17.80;55.70;;;;;;4887790;29;19942;-82
2021/03/22 00:07:49;;;;;;;;;;;17.90;55.80;;;;;;4912529;23;19927;-82
2021/03/22 00:10:18;;;;;;;;;;;17.90;55.70;;;;;;4904323;29;19935;-82
2021/03/22 00:12:45;;;;;;;;;;;17.90;55.80;;;;;;4903545;29;19960;-82
2021/03/22 00:15:27;;;;;;;;;;;17.80;55.70;;;;;;4904952;29;20077;-82
2021/03/22 00:17:53;;;;;;;;;;;17.80;55.70;;;;;;4901631;29;19950;-82
2021/03/22 00:20:20;;;;;;;;;;;17.70;55.60;;;;;;4907304;29;20049;-82
2021/03/22 00:22:46;;;;;;;;;;;17.80;55.70;;;;;;4907638;29;19950;-82
2021/03/22 00:25:13;;;;;;;;;;;17.70;55.60;;;;;;4902782;29;19942;-82
2021/03/22 00:27:40;;;;;;;;;;;17.70;55.60;;;;;;4902526;29;19927;-82
2021/03/22 00:30:09;;;;;;;;;;;17.70;55.60;;;;;;4898285;29;20414;-82
2021/03/22 00:32:35;;;;;;;;;;;17.70;55.70;;;;;;4900518;29;19964;-81
2021/03/22 00:35:01;;;;;;;;;;;17.70;55.70;;;;;;4896266;29;19927;-81
2021/03/22 00:37:28;;;;;;;;;;;17.70;55.70;;;;;;4903990;29;19931;-81
2021/03/22 00:39:54;;;;;;;;;;;17.70;55.70;;;;;;4909060;29;20411;-82
2021/03/22 00:42:20;;;;;;;;;;;17.70;55.60;;;;;;4901338;29;19927;-82
2021/03/22 00:44:47;;;;;;;;;;;17.70;55.70;;;;;;4905349;29;19927;-82
2021/03/22 00:47:14;;;;;;;;;;;17.60;55.60;;;;;;4904373;29;19934;-81
2021/03/22 00:49:40;;;;;;;;;;;17.70;55.70;;;;;;4899734;29;19934;-82
2021/03/22 00:52:10;;;;;;;;;;;17.60;56.20;;;;;;4905035;29;19934;-83
2021/03/22 00:54:40;;;;;;;;;;;17.60;55.70;;;;;;4906746;29;19949;-83
2021/03/22 00:57:08;;;;;;;;;;;17.60;55.70;;;;;;4902023;29;20025;-83
2021/03/22 00:59:34;;;;;;;;;;;17.60;55.70;;;;;;4907317;29;20238;-83
2021/03/22 01:02:04;;;;;;;;;;;17.60;55.60;;;;;;4898223;29;19954;-82
2021/03/22 01:04:31;;;;;;;;;;;17.60;55.70;;;;;;4905311;29;19983;-81
2021/03/22 01:06:57;;;;;;;;;;;17.60;55.80;;;;;;4907727;29;19916;-82
2021/03/22 01:09:23;;;;;;;;;;;17.50;55.70;;;;;;4911272;29;19931;-82
2021/03/22 01:11:50;;;;;;;;;;;17.50;55.80;;;;;;4911454;29;20030;-82
2021/03/22 01:14:16;;;;;;;;;;;17.50;55.70;;;;;;4907019;29;20289;-82
2021/03/22 01:16:43;;;;;;;;;;;17.50;55.70;;;;;;4903608;29;19927;-82
2021/03/22 01:19:19;;;;;;;;;;;17.50;55.70;;;;;;4907576;29;20430;-82
2021/03/22 01:21:47;;;;;;;;;;;17.50;55.60;;;;;;4907329;29;19938;-82
2021/03/22 01:24:14;;;;;;;;;;;17.50;55.70;;;;;;4911504;29;19934;-82
2021/03/22 01:26:41;;;;;;;;;;;17.50;55.80;;;;;;4911704;29;19937;-82
2021/03/22 01:29:14;;;;;;;;;;;17.50;55.70;;;;;;4903001;29;19935;-82
2021/03/22 01:31:40;;;;;;;;;;;17.50;55.70;;;;;;4902735;29;19916;-81
2021/03/22 01:34:06;;;;;;;;;;;17.50;55.80;;;;;;4899790;29;19927;-81
2021/03/22 01:36:33;;;;;;;;;;;17.50;55.70;;;;;;4906692;29;20443;-81
2021/03/22 01:39:01;;;;;;;;;;;17.40;55.70;;;;;;4901841;29;19950;-82
2021/03/22 01:41:46;;;;;;;;;;;17.40;55.80;;;;;;4907881;29;19927;-82
2021/03/22 01:44:15;;;;;;;;;;;17.40;55.70;;;;;;4904608;29;19967;-82
2021/03/22 01:46:43;;;;;;;;;;;17.40;55.70;;;;;;4909310;29;19931;-82
2021/03/22 01:49:10;;;;;;;;;;;17.50;55.80;;;;;;4900847;29;19927;-81
2021/03/22 01:51:36;;;;;;;;;;;17.40;55.80;;;;;;4901722;29;19942;-82
2021/03/22 01:54:03;;;;;;;;;;;17.40;55.70;;;;;;4909075;29;19952;-82
2021/03/22 01:56:32;;;;;;;;;;;17.40;55.70;;;;;;4907940;29;19938;-82
2021/03/22 01:58:59;;;;;;;;;;;17.40;55.80;;;;;;4908991;29;19919;-82
2021/03/22 02:01:26;;;;;;;;;;;17.30;55.70;;;;;;4904559;29;19928;-82
2021/03/22 02:03:53;;;;;;;;;;;17.40;55.70;;;;;;4907343;29;20571;-82
2021/03/22 02:06:19;;;;;;;;;;;17.30;55.70;;;;;;4910020;29;20348;-83
2021/03/22 02:08:47;;;;;;;;;;;17.30;55.70;;;;;;4907358;29;19938;-82
2021/03/22 02:11:27;;;;;;;;;;;17.30;55.70;;;;;;4911221;29;19927;-82
2021/03/22 02:13:56;;;;;;;;;;;17.30;55.70;;;;;;4911380;29;19931;-82
2021/03/22 02:16:24;;;;;;;;;;;17.30;55.70;;;;;;4904441;29;19966;-81
2021/03/22 02:19:01;;;;;;;;;;;17.30;55.70;;;;;;4905408;29;19939;-81
2021/03/22 02:21:32;;;;;;;;;;;17.30;55.70;;;;;;4907832;29;19927;-81
2021/03/22 02:24:24;;;;;;;;;;;17.30;55.70;;;;;;4900393;29;20014;-81
2021/03/22 02:27:29;;;;;;;;;;;17.30;55.70;;;;;;4905779;29;20038;-82
2021/03/22 02:30:04;;;;;;;;;;;17.20;55.70;;;;;;4853137;29;19928;-82
2021/03/22 02:32:41;;;;;;;;;;;17.30;55.80;;;;;;4851914;29;20425;-82
2021/03/22 02:35:28;;;;;;;;;;;17.30;55.80;;;;;;4885460;29;19934;-83
2021/03/22 02:37:58;;;;;;;;;;;17.20;55.70;;;;;;4901290;29;19938;-82
2021/03/22 02:40:25;;;;;;;;;;;17.30;55.80;;;;;;4897388;29;19959;-82
2021/03/22 02:42:51;;;;;;;;;;;17.20;55.80;;;;;;4902811;29;19966;-82
2021/03/22 02:45:20;;;;;;;;;;;17.20;55.80;;;;;;4898283;29;19935;-79
2021/03/22 02:47:46;;;;;;;;;;;17.20;55.70;;;;;;4900016;29;20212;-80
2021/03/22 02:50:15;;;;;;;;;;;17.20;55.70;;;;;;4902514;29;20474;-81
2021/03/22 02:53:00;;;;;;;;;;;17.20;55.70;;;;;;4905906;29;19983;-81
2021/03/22 02:55:29;;;;;;;;;;;17.20;55.70;;;;;;4909302;29;19931;-81
2021/03/22 02:57:58;;;;;;;;;;;17.20;55.80;;;;;;4895568;29;19931;-81
2021/03/22 03:00:29;;;;;;;;;;;17.20;55.80;;;;;;4902920;29;19991;-81
2021/03/22 03:02:58;;;;;;;;;;;17.20;55.80;;;;;;4902598;29;20316;-81
2021/03/22 03:05:27;;;;;;;;;;;17.20;55.70;;;;;;4901987;29;19939;-82
2021/03/22 03:07:54;;;;;;;;;;;17.20;55.70;;;;;;4903006;29;19935;-82
2021/03/22 03:10:22;;;;;;;;;;;17.20;55.80;;;;;;4904127;29;19932;-81
2021/03/22 03:12:48;;;;;;;;;;;17.10;56.30;;;;;;4904494;29;20388;-81
2021/03/22 03:15:15;;;;;;;;;;;17.20;55.80;;;;;;4901884;29;19950;-82
2021/03/22 03:17:47;;;;;;;;;;;17.10;55.70;;;;;;4902956;29;19938;-82
2021/03/22 03:20:16;;;;;;;;;;;17.10;55.70;;;;;;4904621;29;19927;-81
2021/03/22 03:22:42;;;;;;;;;;;17.10;55.70;;;;;;4902159;29;19966;-81
2021/03/22 03:25:10;;;;;;;;;;;17.10;55.70;;;;;;4898721;29;19982;-82
2021/03/22 03:27:37;;;;;;;;;;;17.10;55.70;;;;;;4900455;29;19931;-81
2021/03/22 03:30:08;;;;;;;;;;;17.10;55.70;;;;;;4898447;29;19934;-82
2021/03/22 03:32:34;;;;;;;;;;;17.20;55.70;;;;;;4904521;29;20006;-82
2021/03/22 03:35:01;;;;;;;;;;;17.10;55.70;;;;;;4898280;29;19931;-82
2021/03/22 03:37:27;;;;;;;;;;;17.10;55.70;;;;;;4897949;29;19931;-82
2021/03/22 03:39:53;;;;;;;;;;;17.10;55.70;;;;;;4893934;29;19931;-82
2021/03/22 03:42:19;;;;;;;;;;;17.10;55.70;;;;;;4902269;29;19935;-82
2021/03/22 03:44:46;;;;;;;;;;;17.10;55.70;;;;;;4901776;29;20459;-82
2021/03/22 03:47:12;;;;;;;;;;;17.10;55.70;;;;;;4901274;29;20261;-82
2021/03/22 03:49:38;;;;;;;;;;;17.10;55.70;;;;;;4898306;29;19935;-83
2021/03/22 03:52:05;;;;;;;;;;;17.10;55.70;;;;;;4903281;29;19927;-83
2021/03/22 03:54:31;;;;;;;;;;;17.10;55.70;;;;;;4904769;29;19952;-82
2021/03/22 03:56:59;;;;;;;;;;;17.00;55.60;;;;;;4899347;29;20012;-82
2021/03/22 03:59:25;;;;;;;;;;;17.00;55.60;;;;;;4899595;29;20073;-82
2021/03/22 04:01:52;;;;;;;;;;;17.00;55.60;;;;;;4898531;29;19927;-82
2021/03/22 04:04:18;;;;;;;;;;;17.00;55.60;;;;;;4900662;29;19933;-82
2021/03/22 04:06:45;;;;;;;;;;;17.00;55.70;;;;;;4907759;29;20597;-83
2021/03/22 04:09:12;;;;;;;;;;;17.00;55.60;;;;;;4899000;29;19927;-83
2021/03/22 04:11:39;;;;;;;;;;;17.00;55.60;;;;;;4902994;29;20037;-82
2021/03/22 04:14:07;;;;;;;;;;;17.00;55.60;;;;;;4900409;29;19923;-82
2021/03/22 04:16:34;;;;;;;;;;;17.00;55.60;;;;;;4902502;29;20499;-81
2021/03/22 04:19:01;;;;;;;;;;;17.00;55.60;;;;;;4899920;29;19971;-82
2021/03/22 04:21:29;;;;;;;;;;;17.00;55.60;;;;;;4898713;29;19935;-83
2021/03/22 04:23:56;;;;;;;;;;;17.00;55.50;;;;;;4898951;29;20315;-82
2021/03/22 04:26:23;;;;;;;;;;;17.00;55.60;;;;;;4897526;29;19953;-82
2021/03/22 04:28:49;;;;;;;;;;;17.00;55.60;;;;;;4902850;29;20014;-83
2021/03/22 04:31:17;;;;;;;;;;;17.00;55.60;;;;;;4907178;29;19927;-83
2021/03/22 04:33:44;;;;;;;;;;;17.00;55.60;;;;;;4900450;29;19927;-83
2021/03/22 04:36:11;;;;;;;;;;;16.90;55.50;;;;;;4900861;29;19915;-82
2021/03/22 04:38:38;;;;;;;;;;;16.90;55.60;;;;;;4899489;29;19938;-83
2021/03/22 04:41:05;;;;;;;;;;;16.90;55.50;;;;;;4904157;29;19931;-83
2021/03/22 04:43:31;;;;;;;;;;;17.00;55.60;;;;;;4900606;29;19931;-82
2021/03/22 04:45:58;;;;;;;;;;;17.00;55.60;;;;;;4908968;29;20018;-82
2021/03/22 04:48:24;;;;;;;;;;;17.00;55.60;;;;;;4904967;29;19935;-82
2021/03/22 04:50:51;;;;;;;;;;;16.90;55.50;;;;;;4902434;29;19935;-82
2021/03/22 04:53:17;;;;;;;;;;;16.90;55.50;;;;;;4901629;29;19927;-82
2021/03/22 04:55:43;;;;;;;;;;;16.90;55.50;;;;;;4901583;29;19927;-83
2021/03/22 04:58:10;;;;;;;;;;;16.90;55.50;;;;;;4903913;29;20022;-82
2021/03/22 05:00:40;;;;;;;;;;;16.90;55.50;;;;;;4906317;29;19932;-82
2021/03/22 05:03:07;;;;;;;;;;;16.90;55.50;;;;;;4901719;29;19939;-80
2021/03/22 05:05:35;;;;;;;;;;;16.90;55.50;;;;;;4901477;29;19934;-82
2021/03/22 05:08:03;;;;;;;;;;;16.90;55.50;;;;;;4906477;29;20443;-82
2021/03/22 05:10:31;;;;;;;;;;;16.90;55.50;;;;;;4902422;29;19931;-84
2021/03/22 05:12:57;;;;;;;;;;;16.90;55.50;;;;;;4904605;29;19942;-84
2021/03/22 05:15:23;;;;;;;;;;;16.90;55.50;;;;;;4901757;29;20042;-83
2021/03/22 05:17:50;;;;;;;;;;;16.90;56.10;;;;;;4895461;29;19987;-83
2021/03/22 05:20:24;;;;;;;;;;;16.90;55.50;;;;;;4905219;29;20372;-82
2021/03/22 05:22:50;;;;;;;;;;;16.90;55.50;;;;;;4894547;29;19931;-82
2021/03/22 05:25:17;;;;;;;;;;;16.90;55.50;;;;;;4903000;29;19931;-82
2021/03/22 05:27:43;;;;;;;;;;;16.90;55.50;;;;;;4903121;29;19935;-83
2021/03/22 05:30:11;;;;;;;;;;;16.90;55.50;;;;;;4899591;29;19935;-85
2021/03/22 05:32:37;;;;;;;;;;;16.90;55.50;;;;;;4902390;29;20299;-85
2021/03/22 05:35:07;;;;;;;;;;;16.90;55.50;;;;;;4898742;29;19933;-84
2021/03/22 05:37:33;;;;;;;;;;;16.90;55.50;;;;;;4911952;29;20006;-84
2021/03/22 05:39:59;;;;;;;;;;;16.90;55.50;;;;;;4898202;29;19970;-84
2021/03/22 05:42:45;;;;;;;;;;;16.90;55.50;;;;;;4907112;29;19931;-84
2021/03/22 05:45:31;;;;;;;;;;;16.90;55.50;;;;;;4904704;29;20439;-82
2021/03/22 05:48:10;;;;;;;;;;;16.80;55.40;;;;;;4902571;29;19927;-82
2021/03/22 05:50:43;;;;;;;;;;;16.90;55.50;;;;;;4902420;29;19946;-81
2021/03/22 05:53:28;;;;;;;;;;;16.90;55.50;;;;;;4903955;29;19928;-81
2021/03/22 05:55:55;;;;;;;;;;;16.90;55.50;;;;;;4903735;29;19927;-80
2021/03/22 05:58:40;;;;;;;;;;;16.80;55.40;;;;;;4908767;29;19928;-81
2021/03/22 06:01:21;;;;;;;;;;;16.80;55.40;;;;;;4902011;29;19927;-81
2021/03/22 06:03:52;;;;;;;;;;;16.80;55.40;;;;;;4902850;29;20691;-81
2021/03/22 06:06:41;;;;;;;;;;;16.80;55.50;;;;;;4907736;29;19959;-81
2021/03/22 06:09:26;;;;;;;;;;;16.90;55.60;;;;;;4905117;29;19931;-81
2021/03/22 06:11:58;;;;;;;;;;;16.80;55.50;;;;;;4899901;29;20149;-80
2021/03/22 06:14:39;;;;;;;;;;;16.80;55.60;;;;;;4901202;29;19958;-81
2021/03/22 06:17:08;;;;;;;;;;;16.80;55.50;;;;;;4902088;29;19978;-80
2021/03/22 06:19:42;;;;;;;;;;;16.80;56.20;;;;;;4901876;29;19932;-81
2021/03/22 06:22:11;;;;;;;;;;;16.80;55.60;;;;;;4908123;29;20015;-87
2021/03/22 06:24:37;;;;;;;;;;;16.80;55.80;;;;;;4907755;29;19933;-84
2021/03/22 06:27:08;;;;;;;;;;;16.80;55.80;;;;;;4903266;29;19974;-85
2021/03/22 06:29:38;;;;;;;;;;;16.80;55.80;;;;;;4904612;29;20543;-80
2021/03/22 06:32:04;;;;;;;;;;;16.80;55.70;;;;;;4910379;29;19983;-83
2021/03/22 06:34:49;;;;;;;;;;;16.80;55.60;;;;;;4901694;29;20448;-83
2021/03/22 06:37:18;;;;;;;;;;;16.80;55.60;;;;;;4905290;29;19926;-83
2021/03/22 06:39:45;;;;;;;;;;;16.80;55.50;;;;;;4900698;29;19935;-83
2021/03/22 06:42:16;;;;;;;;;;;16.80;55.50;;;;;;4903399;29;19935;-83
2021/03/22 06:44:43;;;;;;;;;;;16.80;55.40;;;;;;4906130;29;19927;-82
2021/03/22 06:47:12;;;;;;;;;;;16.80;55.40;;;;;;4908798;29;19927;-81
2021/03/22 06:49:40;;;;;;;;;;;16.80;55.50;;;;;;4904551;29;19927;-79
2021/03/22 06:52:10;;;;;;;;;;;16.90;57.70;;;;;;4900841;29;19927;-82
2021/03/22 06:54:41;;;;;;;;;;;16.90;59.30;;;;;;4907620;29;19945;-84
2021/03/22 06:57:10;;;;;;;;;;;17.00;59.60;;;;;;4911278;29;19935;-82
2021/03/22 06:59:36;;;;;;;;;;;17.00;58.60;;;;;;4903321;29;19931;-82
2021/03/22 07:02:17;;;;;;;;;;;17.00;58.10;;;;;;4906872;29;20030;-83
2021/03/22 07:04:45;;;;;;;;;;;16.90;57.70;;;;;;4908493;29;19927;-84
2021/03/22 07:07:14;;;;;;;;;;;17.00;57.50;;;;;;4902901;29;19931;-85
2021/03/22 07:09:42;;;;;;;;;;;17.00;57.80;;;;;;4904811;29;20407;-85
2021/03/22 07:12:19;;;;;;;;;;;17.20;57.80;;;;;;4903743;29;19927;-83
2021/03/22 07:14:45;;;;;;;;;;;17.30;57.60;;;;;;4906468;29;19927;-87
2021/03/22 07:17:17;;;;;;;;;;;17.40;57.30;;;;;;4905317;29;19931;-81
2021/03/22 07:20:00;;;;;;;;;;;17.30;56.90;;;;;;4901516;29;19931;-81
2021/03/22 07:22:27;;;;;;;;;;;17.30;56.60;;;;;;4907010;29;19981;-81
2021/03/22 07:25:01;;;;;;;;;;;17.30;56.50;;;;;;4897870;29;19931;-82
2021/03/22 07:27:36;;;;;;;;;;;17.30;56.30;;;;;;4903303;29;19932;-83
2021/03/22 07:30:06;;;;;;;;;;;17.20;56.10;;;;;;4906079;29;19935;-83
2021/03/22 07:32:50;;;;;;;;;;;17.30;56.10;;;;;;4905115;29;19930;-85
2021/03/22 07:35:39;;;;;;;;;;;17.30;56.00;;;;;;4902981;29;20595;-83
2021/03/22 07:38:25;;;;;;;;;;;17.30;55.90;;;;;;4901206;29;19935;-83
2021/03/22 07:40:53;;;;;;;;;;;17.30;55.80;;;;;;4906532;29;19927;-82
2021/03/22 07:43:36;;;;;;;;;;;17.30;55.70;;;;;;4907766;29;19953;-83
2021/03/22 07:46:21;;;;;;;;;;;17.30;55.60;;;;;;4902829;29;19961;-83
2021/03/22 07:48:56;;;;;;;;;;;17.30;55.50;;;;;;4904863;29;19935;-83
2021/03/22 07:51:29;;;;;;;;;;;17.40;55.50;;;;;;4904075;29;19999;-84
2021/03/22 07:54:19;;;;;;;;;;;17.40;55.50;;;;;;4900618;29;19923;-87
2021/03/22 07:56:52;;;;;;;;;;;17.30;55.40;;;;;;4897277;29;19934;-85
2021/03/22 07:59:45;;;;;;;;;;;17.40;55.40;;;;;;4891673;29;19970;-84
2021/03/22 08:02:20;;;;;;;;;;;17.40;55.40;;;;;;4898770;29;19935;-84
2021/03/22 08:04:55;;;;;;;;;;;17.50;57.90;;;;;;4902823;29;19931;-85
2021/03/22 08:07:27;;;;;;;;;;;17.60;58.60;;;;;;4904666;29;19928;-87
2021/03/22 08:10:03;;;;;;;;;;;17.80;59.00;;;;;;4905601;29;19966;-85
2021/03/22 08:12:47;;;;;;;;;;;17.90;58.60;;;;;;4904625;29;19927;-89
2021/03/22 08:15:22;;;;;;;;;;;18.00;58.50;;;;;;4903235;29;20519;-84
2021/03/22 08:17:53;;;;;;;;;;;18.10;58.40;;;;;;4904319;29;19931;-87
2021/03/22 08:20:25;;;;;;;;;;;18.10;58.00;;;;;;4903646;29;19927;-86
2021/03/22 08:23:04;;;;;;;;;;;18.20;57.70;;;;;;4905854;29;20030;-86
2021/03/22 08:25:41;;;;;;;;;;;18.30;57.40;;;;;;4905054;29;19927;-86
2021/03/22 08:28:14;;;;;;;;;;;18.40;57.30;;;;;;4901878;29;19942;-85
2021/03/22 08:30:46;;;;;;;;;;;18.40;57.00;;;;;;4904426;29;19962;-84
2021/03/22 08:33:40;;;;;;;;;;;18.50;56.70;;;;;;4902244;29;20371;-86
2021/03/22 08:36:26;;;;;;;;;;;18.60;56.80;;;;;;4900755;29;19931;-87
2021/03/22 08:38:54;;;;;;;;;;;18.70;56.50;;;;;;4936652;23;19943;-88
2021/03/22 08:41:28;;;;;;;;;;;18.70;56.30;;;;;;4902708;29;19931;-88
2021/03/22 08:44:15;;;;;;;;;;;18.80;56.00;;;;;;4924389;28;20628;-85
2021/03/22 08:46:47;;;;;;;;;;;18.80;55.90;;;;;;4905484;29;19931;-85
2021/03/22 08:49:23;;;;;;;;;;;18.80;55.60;;;;;;4902573;29;20308;-90
2021/03/22 08:51:55;;;;;;;;;;;18.90;56.00;;;;;;4915315;28;19989;-86
2021/03/22 08:54:27;;;;;;;;;;;18.90;55.60;;;;;;4903340;29;19935;-85
2021/03/22 08:57:02;;;;;;;;;;;18.90;54.40;;;;;;4899693;29;19934;-84
2021/03/22 08:59:29;;;;;;;;;;;18.80;54.70;;;;;;4903870;29;19936;-84
2021/03/22 09:02:09;;;;;;;;;;;19.60;53.50;;;;;;4900399;29;19931;-84
2021/03/22 09:04:38;;;;;;;;;;;20.50;51.70;;;;;;4900426;29;19931;-82
2021/03/22 09:07:12;;;;;;;;;;;21.00;50.70;;;;;;4900234;29;19935;-86
2021/03/22 09:09:40;;;;;;;;;;;21.40;49.90;;;;;;4915260;29;20748;-86
2021/03/22 09:12:26;;;;;;;;;;;21.60;49.40;;;;;;4903256;29;19934;-86
2021/03/22 09:14:53;;;;;;;;;;;21.90;49.10;;;;;;4902360;29;19934;-82
2021/03/22 09:17:22;;;;;;;;;;;22.00;48.60;;;;;;4903858;29;19958;-87
2021/03/22 09:20:20;;;;;;;;;;;22.20;48.20;;;;;;4900698;29;19950;-86
2021/03/22 09:22:49;;;;;;;;;;;22.40;48.00;;;;;;4905151;29;19966;-82
2021/03/22 09:25:35;;;;;;;;;;;22.60;47.60;;;;;;4907501;29;19938;-84
2021/03/22 09:28:29;;;;;;;;;;;22.70;47.50;;;;;;4902117;29;19942;-84
2021/03/22 09:31:16;;;;;;;;;;;22.90;47.20;;;;;;4904500;29;20586;-89
2021/03/22 09:34:21;;;;;;;;;;;23.00;47.10;;;;;;4905343;29;19931;-86
2021/03/22 09:36:48;;;;;;;;;;;23.30;46.80;;;;;;4901369;29;19931;-85
2021/03/22 09:39:14;;;;;;;;;;;23.40;46.50;;;;;;4906377;29;19937;-86
2021/03/22 09:41:59;;;;;;;;;;;23.50;46.40;;;;;;4905660;29;19931;-88
2021/03/22 09:44:30;;;;;;;;;;;23.60;46.20;;;;;;4905253;29;19938;-87
2021/03/22 09:47:04;;;;;;;;;;;23.70;45.90;;;;;;4886023;29;20010;-82
2021/03/22 09:49:32;;;;;;;;;;;23.80;45.90;;;;;;4904401;29;19931;-87
2021/03/22 09:52:01;;;;;;;;;;;23.90;45.80;;;;;;4900307;29;19931;-82
2021/03/22 09:54:37;;;;;;;;;;;24.00;45.70;;;;;;4900707;29;19942;-80
2021/03/22 09:57:15;;;;;;;;;;;24.10;45.50;;;;;;4878981;29;19955;-82
2021/03/22 10:00:00;;;;;;;;;;;24.20;45.50;;;;;;4897685;29;19942;-82
2021/03/22 10:02:29;;;;;;;;;;;24.30;45.40;;;;;;4902435;29;20497;-82
2021/03/22 10:05:09;;;;;;;;;;;24.40;45.20;;;;;;4882436;29;19963;-83
2021/03/22 10:07:38;;;;;;;;;;;24.60;45.10;;;;;;4903821;29;20534;-86
2021/03/22 10:10:04;;;;;;;;;;;24.70;44.70;;;;;;4888868;29;20065;-82
2021/03/22 10:12:36;;;;;;;;;;;24.80;44.70;;;;;;4898062;29;19931;-81
2021/03/22 10:15:07;;;;;;;;;;;24.80;44.40;;;;;;4900407;29;20411;-81
2021/03/22 10:17:35;;;;;;;;;;;25.00;44.50;;;;;;4900261;29;19934;-88
2021/03/22 10:20:23;;;;;;;;;;;25.00;44.10;;;;;;4903150;29;20011;-84
2021/03/22 10:23:13;;;;;;;;;;;25.20;44.20;;;;;;4901203;29;19934;-84
2021/03/22 10:25:41;;;;;;;;;;;25.20;44.70;;;;;;4886342;29;19933;-89
2021/03/22 10:28:15;;;;;;;;;;;25.40;43.80;;;;;;4885115;29;19983;-83
2021/03/22 10:30:52;;;;;;;;;;;25.40;44.00;;;;;;4899763;29;20043;-87
2021/03/22 10:33:18;;;;;;;;;;;25.50;43.90;;;;;;4879205;29;20012;-87
2021/03/22 10:35:47;;;;;;;;;;;25.50;43.70;;;;;;4879923;29;20042;-86
2021/03/22 10:38:21;;;;;;;;;;;25.60;43.80;;;;;;4882323;29;19931;-86
2021/03/22 10:40:47;;;;;;;;;;;25.70;43.40;;;;;;4919326;29;20002;-84
2021/03/22 10:43:24;;;;;;;;;;;25.70;43.40;;;;;;4920510;29;20352;-83
2021/03/22 10:45:53;;;;;;;;;;;25.90;43.40;;;;;;4922997;29;19942;-88
2021/03/22 10:48:27;;;;;;;;;;;26.00;43.10;;;;;;4906622;29;19931;-82
2021/03/22 10:51:04;;;;;;;;;;;26.00;43.10;;;;;;4924888;29;20893;-81
2021/03/22 10:53:32;;;;;;;;;;;26.10;42.90;;;;;;4921400;29;19930;-81
2021/03/22 10:56:14;;;;;;;;;;;26.10;43.00;;;;;;4925680;29;19929;-83
2021/03/22 10:58:41;;;;;;;;;;;26.20;42.90;;;;;;4921874;29;19934;-82
2021/03/22 11:01:07;;;;;;;;;;;26.40;43.20;;;;;;4921641;29;19931;-84
2021/03/22 11:03:35;;;;;;;;;;;25.90;42.80;;;;;;4922316;29;19958;-84
2021/03/22 11:06:09;;;;;;;;;;;26.10;43.30;;;;;;4917179;29;20017;-84
2021/03/22 11:08:37;;;;;;;;;;;26.40;42.90;;;;;;4920622;29;19937;-85
2021/03/22 11:11:05;;;;;;;;;;;26.50;42.60;;;;;;4906154;29;19986;-86
2021/03/22 11:13:34;;;;;;;;;;;26.70;42.50;;;;;;4923975;29;20452;-83
2021/03/22 11:16:21;;;;;;;;;;;26.80;42.20;;;;;;4919938;29;19937;-85
2021/03/22 11:18:50;;;;;;;;;;;27.00;42.00;;;;;;4921419;29;19926;-84
2021/03/22 11:21:21;;;;;;;;;;;27.00;42.10;;;;;;4923978;29;20013;-81
2021/03/22 11:23:49;;;;;;;;;;;26.90;42.10;;;;;;4920070;29;20703;-83
2021/03/22 11:26:16;;;;;;;;;;;27.00;42.20;;;;;;4922289;29;19927;-84
2021/03/22 11:28:48;;;;;;;;;;;27.20;41.90;;;;;;4908854;29;19966;-81
2021/03/22 11:31:22;;;;;;;;;;;27.30;41.80;;;;;;4903370;29;20619;-82
2021/03/22 11:34:01;;;;;;;;;;;27.40;41.50;;;;;;4918743;29;21640;-82
2021/03/22 11:36:37;;;;;;;;;;;27.40;41.60;;;;;;4904124;29;20368;-84
2021/03/22 11:39:13;;;;;;;;;;;27.40;41.50;;;;;;4903293;29;20009;-83
2021/03/22 11:41:42;;;;;;;;;;;27.50;41.70;;;;;;4906708;29;19987;-83
2021/03/22 11:44:14;;;;;;;;;;;27.50;41.60;;;;;;4899436;29;19995;-83
2021/03/22 11:46:42;;;;;;;;;;;27.50;41.90;;;;;;4896847;29;20221;-83
2021/03/22 11:49:31;;;;;;;;;;;27.60;41.50;;;;;;4901473;29;19935;-86
2021/03/22 11:52:01;;;;;;;;;;;27.80;41.40;;;;;;4896175;29;19935;-87
2021/03/22 11:54:28;;;;;;;;;;;27.80;41.20;;;;;;4884794;29;19935;-86
2021/03/22 11:56:57;;;;;;;;;;;28.00;41.10;;;;;;4901192;29;19935;-81
2021/03/22 11:59:23;;;;;;;;;;;28.00;41.00;;;;;;4901975;29;20752;-85
2021/03/22 12:02:18;;;;;;;;;;;27.80;41.60;;;;;;4902415;29;19942;-89
2021/03/22 12:05:03;;;;;;;;;;;27.80;41.40;;;;;;4880480;29;19939;-84
2021/03/22 12:07:50;;;;;;;;;;;27.90;41.50;;;;;;4876589;29;19935;-83
2021/03/22 12:10:21;;;;;;;;;;;27.90;41.70;;;;;;4900211;29;19939;-83
2021/03/22 12:12:48;;;;;;;;;;;28.00;41.50;;;;;;4900221;29;19931;-85
2021/03/22 12:15:15;;;;;;;;;;;28.10;41.20;;;;;;4897212;29;19941;-83
2021/03/22 12:17:41;;;;;;;;;;;28.10;41.50;;;;;;4884496;29;20117;-81
2021/03/22 12:20:12;;;;;;;;;;;28.10;41.20;;;;;;4900010;29;20604;-85
2021/03/22 12:22:39;;;;;;;;;;;28.30;40.90;;;;;;4885953;29;19931;-83
2021/03/22 12:25:05;;;;;;;;;;;28.40;40.20;;;;;;4897592;29;19931;-85
2021/03/22 12:27:31;;;;;;;;;;;27.70;42.50;;;;;;4902384;29;19937;-84
2021/03/22 12:30:00;;;;;;;;;;;27.20;43.30;;;;;;4897023;29;20439;-85
2021/03/22 12:32:27;;;;;;;;;;;26.90;43.70;;;;;;4903285;29;19927;-81
2021/03/22 12:34:54;;;;;;;;;;;26.60;44.30;;;;;;4898939;29;19942;-85
2021/03/22 12:37:23;;;;;;;;;;;26.30;45.30;;;;;;4901239;29;19934;-85
2021/03/22 12:39:50;;;;;;;;;;;26.20;45.40;;;;;;4891248;29;19931;-80
2021/03/22 12:42:17;;;;;;;;;;;26.10;45.80;;;;;;4914752;29;20037;-79
2021/03/22 12:44:45;;;;;;;;;;;26.00;45.70;;;;;;4918038;29;19982;-80
2021/03/22 12:47:22;;;;;;;;;;;25.90;45.70;;;;;;4921498;29;19958;-88
2021/03/22 12:49:59;;;;;;;;;;;25.50;44.70;;;;;;4907592;29;19934;-88
2021/03/22 12:52:25;;;;;;;;;;;25.30;45.00;;;;;;4908412;29;19923;-87
2021/03/22 12:54:55;;;;;;;;;;;25.00;45.10;;;;;;4909693;29;20619;-91
2021/03/22 12:57:23;;;;;;;;;;;24.90;46.90;;;;;;4910451;29;20483;-91
2021/03/22 13:00:03;;;;;;;;;;;24.90;48.80;;;;;;4910897;29;20022;-85
2021/03/22 13:02:31;;;;;;;;;;;25.00;47.90;;;;;;4914994;29;19977;-84
2021/03/22 13:04:58;;;;;;;;;;;25.00;48.40;;;;;;4925956;28;19961;-86
2021/03/22 13:07:24;;;;;;;;;;;25.00;48.40;;;;;;4925269;29;20157;-89
2021/03/22 13:09:51;;;;;;;;;;;25.00;48.10;;;;;;4925260;28;19927;-87
2021/03/22 13:12:18;;;;;;;;;;;25.00;48.10;;;;;;4929044;29;19939;-86
2021/03/22 13:14:44;;;;;;;;;;;24.90;48.40;;;;;;4928821;29;20021;-87
2021/03/22 13:17:12;;;;;;;;;;;24.90;48.10;;;;;;4909987;29;19930;-86
2021/03/22 13:19:39;;;;;;;;;;;24.90;47.80;;;;;;4926812;29;20346;-83
2021/03/22 13:22:06;;;;;;;;;;;24.90;48.20;;;;;;4923014;29;19930;-81
2021/03/22 13:24:35;;;;;;;;;;;24.80;48.10;;;;;;4928890;29;20029;-85
2021/03/22 13:27:01;;;;;;;;;;;24.80;47.80;;;;;;4931409;29;19956;-86
2021/03/22 13:29:27;;;;;;;;;;;24.80;46.90;;;;;;4929836;29;19931;-86
2021/03/22 13:31:56;;;;;;;;;;;24.80;47.90;;;;;;4913511;29;20590;-84
2021/03/22 13:34:27;;;;;;;;;;;24.70;48.20;;;;;;4923656;29;20033;-88
2021/03/22 13:36:54;;;;;;;;;;;24.80;48.00;;;;;;4925099;29;19934;-87
2021/03/22 13:39:24;;;;;;;;;;;24.70;48.20;;;;;;4927098;29;20130;-86
2021/03/22 13:41:50;;;;;;;;;;;24.70;48.70;;;;;;4910772;29;20644;-83
2021/03/22 13:44:17;;;;;;;;;;;24.70;48.20;;;;;;4925794;29;19930;-88
2021/03/22 13:46:44;;;;;;;;;;;24.70;48.90;;;;;;4909559;29;19959;-88
2021/03/22 13:49:11;;;;;;;;;;;24.70;48.60;;;;;;4925118;29;20011;-86
2021/03/22 13:51:41;;;;;;;;;;;24.70;48.30;;;;;;4910992;29;19930;-90
2021/03/22 13:54:10;;;;;;;;;;;24.70;48.00;;;;;;4910790;29;19935;-90
2021/03/22 13:56:41;;;;;;;;;;;24.70;48.00;;;;;;4924496;29;20284;-87
2021/03/22 13:59:16;;;;;;;;;;;24.70;48.10;;;;;;4925817;28;19931;-85
2021/03/22 14:01:43;;;;;;;;;;;24.70;49.00;;;;;;4912925;29;19966;-93
2021/03/22 14:04:14;;;;;;;;;;;24.60;48.70;;;;;;4930726;29;19931;-89
2021/03/22 14:06:41;;;;;;;;;;;24.70;47.80;;;;;;4909679;29;19971;-87
2021/03/22 14:09:12;;;;;;;;;;;24.60;48.00;;;;;;4911210;29;19934;-86
2021/03/22 14:11:45;;;;;;;;;;;24.60;47.70;;;;;;4910847;29;19942;-85
2021/03/22 14:14:12;;;;;;;;;;;24.60;48.00;;;;;;4929440;29;19935;-86
2021/03/22 14:16:38;;;;;;;;;;;24.50;47.60;;;;;;4930328;29;20357;-87
2021/03/22 14:19:05;;;;;;;;;;;24.60;47.60;;;;;;4930562;29;19958;-89
2021/03/22 14:21:31;;;;;;;;;;;24.50;47.70;;;;;;4928581;29;20513;-88
2021/03/22 14:23:58;;;;;;;;;;;24.50;47.60;;;;;;4924162;29;19926;-88
2021/03/22 14:26:25;;;;;;;;;;;24.50;47.70;;;;;;4910714;29;19938;-90
2021/03/22 14:28:52;;;;;;;;;;;24.50;47.60;;;;;;4894865;29;19939;-91
2021/03/22 14:31:28;;;;;;;;;;;24.50;47.90;;;;;;4909639;29;19931;-91
2021/03/22 14:34:00;;;;;;;;;;;24.40;47.50;;;;;;4927678;29;19930;-89
2021/03/22 14:36:28;;;;;;;;;;;24.40;47.60;;;;;;4905648;29;19926;-86
2021/03/22 14:38:55;;;;;;;;;;;24.40;47.80;;;;;;4907814;29;19938;-89